Time;durP1;ratioP1;P1;durP2;ratioP2;P2;SDS_P1;SDS_P2;PMS_P1;PMS_P2;Temp;Humidity;BMP_temperature;BMP_pressure;BME280_temperature;BME280_humidity;BME280_pressure;Samples;Min_cycle;Max_cycle;Signal;HPM_P1;HPM_P2
2022/05/11 00:01:57;;;;;;;1999.90;999.90;;;15.60;99.90;;;;;;4955246;29;20031;-75
2022/05/11 00:04:23;;;;;;;1999.90;999.90;;;15.60;99.90;;;;;;4949727;28;20403;-75
2022/05/11 00:06:49;;;;;;;1999.90;999.90;;;15.50;99.90;;;;;;4961773;28;20034;-75
2022/05/11 00:09:16;;;;;;;1999.90;999.90;;;15.50;99.90;;;;;;4951297;29;20066;-75
2022/05/11 00:11:43;;;;;;;1999.90;999.90;;;15.50;99.90;;;;;;4947421;28;20032;-75
2022/05/11 00:14:10;;;;;;;1999.90;999.90;;;15.40;99.90;;;;;;4951055;29;20023;-75
2022/05/11 00:16:36;;;;;;;1999.90;999.90;;;15.40;99.90;;;;;;4949237;28;20490;-75
2022/05/11 00:19:02;;;;;;;1999.90;999.90;;;15.30;99.90;;;;;;4951358;29;20035;-76
2022/05/11 00:21:27;;;;;;;1999.90;999.90;;;15.30;99.90;;;;;;4943435;29;20541;-75
2022/05/11 00:23:53;;;;;;;1999.90;999.90;;;15.20;99.90;;;;;;4954604;29;20035;-75
2022/05/11 00:26:20;;;;;;;1999.90;999.90;;;15.20;99.90;;;;;;4956695;28;20079;-75
2022/05/11 00:28:45;;;;;;;1999.90;999.90;;;15.20;99.90;;;;;;4949938;28;20027;-75
2022/05/11 00:31:11;;;;;;;1999.90;999.90;;;15.10;99.90;;;;;;4954988;28;20158;-75
2022/05/11 00:33:37;;;;;;;1999.90;999.90;;;15.10;99.90;;;;;;4945585;29;20402;-75
2022/05/11 00:36:08;;;;;;;1999.90;999.90;;;15.00;99.90;;;;;;4953776;29;20023;-75
2022/05/11 00:38:33;;;;;;;1999.90;999.90;;;14.90;99.90;;;;;;4954977;28;20049;-75
2022/05/11 00:41:00;;;;;;;1999.90;999.90;;;14.90;99.90;;;;;;4954683;28;20035;-75
2022/05/11 00:43:33;;;;;;;1999.90;999.90;;;14.80;99.90;;;;;;4956339;28;20095;-75
2022/05/11 00:46:14;;;;;;;1999.90;999.90;;;14.80;99.90;;;;;;4947877;29;20039;-75
2022/05/11 00:51:33;;;;;;;1999.90;999.90;;;14.70;99.90;;;;;;4953495;29;20082;-75
2022/05/11 00:53:59;;;;;;;1999.90;999.90;;;14.70;99.90;;;;;;4953290;29;20098;-75
2022/05/11 00:56:25;;;;;;;1999.90;999.90;;;14.70;99.90;;;;;;4954176;28;20114;-75
2022/05/11 00:58:56;;;;;;;1999.90;999.90;;;14.60;99.90;;;;;;4956668;28;20484;-76
2022/05/11 01:01:23;;;;;;;1999.90;999.90;;;14.60;99.90;;;;;;4952434;29;20063;-75
2022/05/11 01:04:02;;;;;;;1999.90;999.90;;;14.60;99.90;;;;;;4955647;28;20031;-75
2022/05/11 01:06:32;;;;;;;1999.90;999.90;;;14.50;99.90;;;;;;4947057;29;20040;-75
2022/05/11 01:09:00;;;;;;;1999.90;999.90;;;14.50;99.90;;;;;;4950549;29;20067;-75
2022/05/11 01:11:27;;;;;;;1999.90;999.90;;;14.40;99.90;;;;;;4954148;28;20047;-75
2022/05/11 01:13:53;;;;;;;1999.90;999.90;;;14.40;99.90;;;;;;4953866;29;20027;-75
2022/05/11 01:16:18;;;;;;;1999.90;999.90;;;14.30;99.90;;;;;;4954707;29;20070;-75
2022/05/11 01:18:45;;;;;;;1999.90;999.90;;;14.20;99.90;;;;;;4953339;29;20091;-75
2022/05/11 01:21:10;;;;;;;1999.90;999.90;;;14.10;99.90;;;;;;4955508;28;20083;-75
2022/05/11 01:23:39;;;;;;;1999.90;999.90;;;14.10;99.90;;;;;;4955852;28;20031;-75
2022/05/11 01:26:05;;;;;;;1999.90;999.90;;;14.00;99.90;;;;;;4953912;29;20031;-75
2022/05/11 01:28:31;;;;;;;1999.90;999.90;;;14.00;99.90;;;;;;4958230;28;20147;-75
2022/05/11 01:31:03;;;;;;;1999.90;999.90;;;14.00;99.90;;;;;;4957845;29;20024;-75
2022/05/11 01:33:29;;;;;;;1999.90;999.90;;;14.00;99.90;;;;;;4957535;28;20027;-75
2022/05/11 01:36:20;;;;;;;1999.90;999.90;;;14.00;99.90;;;;;;4944827;29;20279;-75
2022/05/11 01:38:52;;;;;;;1999.90;999.90;;;14.00;99.90;;;;;;4957687;29;20379;-75
2022/05/11 01:41:27;;;;;;;1999.90;999.90;;;13.90;99.90;;;;;;4958093;28;20495;-75
2022/05/11 01:43:53;;;;;;;1999.90;999.90;;;13.90;99.90;;;;;;4956952;29;20034;-75
2022/05/11 01:46:19;;;;;;;1999.90;999.90;;;13.90;99.90;;;;;;4955022;28;20097;-75
2022/05/11 01:48:45;;;;;;;1999.90;999.90;;;13.80;99.90;;;;;;4957674;29;20034;-75
2022/05/11 01:51:16;;;;;;;1999.90;999.90;;;13.80;99.90;;;;;;4952670;29;20028;-75
2022/05/11 01:53:43;;;;;;;1999.90;999.90;;;13.80;99.90;;;;;;4957644;29;20039;-75
2022/05/11 01:56:11;;;;;;;1999.90;999.90;;;13.80;99.90;;;;;;4955888;29;20030;-75
2022/05/11 01:58:37;;;;;;;1999.90;999.90;;;13.80;99.90;;;;;;4951577;28;20129;-75
2022/05/11 02:01:03;;;;;;;1999.90;999.90;;;13.80;99.90;;;;;;4962758;28;20061;-75
2022/05/11 02:03:29;;;;;;;1999.90;999.90;;;13.70;99.90;;;;;;4954182;28;20042;-75
2022/05/11 02:08:43;;;;;;;1999.90;999.90;;;13.70;99.90;;;;;;4957508;29;20038;-75
2022/05/11 02:11:09;;;;;;;1999.90;999.90;;;13.60;99.90;;;;;;4957217;29;20074;-75
2022/05/11 02:13:35;;;;;;;1999.90;999.90;;;13.60;99.90;;;;;;4957339;28;20398;-75
2022/05/11 02:16:02;;;;;;;1999.90;999.90;;;13.60;99.90;;;;;;4957142;29;20021;-75
2022/05/11 02:18:28;;;;;;;1999.90;999.90;;;13.60;99.90;;;;;;4956751;29;20022;-75
2022/05/11 02:20:54;;;;;;;1999.90;999.90;;;13.50;99.90;;;;;;4956786;29;20106;-75
2022/05/11 02:23:21;;;;;;;1999.90;999.90;;;13.50;99.90;;;;;;4956058;29;20122;-75
2022/05/11 02:25:48;;;;;;;1999.90;999.90;;;13.40;99.90;;;;;;4957257;29;20039;-75
2022/05/11 02:28:15;;;;;;;1999.90;999.90;;;13.40;99.90;;;;;;4961298;28;20042;-75
2022/05/11 02:30:42;;;;;;;1999.90;999.90;;;13.40;99.90;;;;;;4956862;29;20154;-75
2022/05/11 02:33:08;;;;;;;1999.90;999.90;;;13.30;99.90;;;;;;4957466;28;20031;-74
2022/05/11 02:35:34;;;;;;;1999.90;999.90;;;13.30;99.90;;;;;;4956893;28;20028;-75
2022/05/11 02:38:02;;;;;;;1999.90;999.90;;;13.30;99.90;;;;;;4955557;29;20027;-76
2022/05/11 02:40:34;;;;;;;1999.90;999.90;;;13.20;99.90;;;;;;4956748;28;20038;-75
2022/05/11 02:43:01;;;;;;;1999.90;999.90;;;13.20;99.90;;;;;;4956592;28;20091;-75
2022/05/11 02:45:27;;;;;;;1999.90;999.90;;;13.20;99.90;;;;;;4944465;29;20038;-75
2022/05/11 02:47:54;;;;;;;1999.90;999.90;;;13.10;99.90;;;;;;4956866;28;20024;-75
2022/05/11 02:50:27;;;;;;;1999.90;999.90;;;13.00;99.90;;;;;;4951056;29;20035;-75
2022/05/11 02:52:53;;;;;;;1999.90;999.90;;;12.90;99.90;;;;;;4956037;29;20467;-75
2022/05/11 02:55:19;;;;;;;1999.90;999.90;;;12.90;99.90;;;;;;4955135;28;20281;-75
2022/05/11 02:57:45;;;;;;;1999.90;999.90;;;12.90;99.90;;;;;;4955751;29;20023;-75
2022/05/11 03:00:16;;;;;;;1999.90;999.90;;;12.80;99.90;;;;;;4961774;28;20475;-75
2022/05/11 03:02:42;;;;;;;1999.90;999.90;;;12.70;99.90;;;;;;4956269;29;20106;-74
2022/05/11 03:05:09;;;;;;;1999.90;999.90;;;12.60;99.90;;;;;;4962630;28;20094;-75
2022/05/11 03:07:35;;;;;;;1999.90;999.90;;;12.50;99.90;;;;;;4955590;28;20019;-75
2022/05/11 03:10:00;;;;;;;1999.90;999.90;;;12.50;99.90;;;;;;4945426;29;20127;-75
2022/05/11 03:12:26;;;;;;;1999.90;999.90;;;12.30;99.90;;;;;;4955814;28;20038;-74
2022/05/11 03:14:57;;;;;;;1999.90;999.90;;;12.30;99.90;;;;;;4956038;29;20023;-75
2022/05/11 03:17:23;;;;;;;1999.90;999.90;;;12.20;99.90;;;;;;4955965;28;20577;-75
2022/05/11 03:19:49;;;;;;;1999.90;999.90;;;12.30;99.90;;;;;;4950157;29;20031;-75
2022/05/11 03:22:14;;;;;;;1999.90;999.90;;;12.20;99.90;;;;;;4952175;29;20035;-74
2022/05/11 03:24:40;;;;;;;1999.90;999.90;;;12.20;99.90;;;;;;4954740;29;20063;-75
2022/05/11 03:27:06;;;;;;;1999.90;999.90;;;12.10;99.90;;;;;;4959929;28;20037;-75
2022/05/11 03:29:33;;;;;;;1999.90;999.90;;;12.10;99.90;;;;;;4951151;29;20023;-75
2022/05/11 03:34:43;;;;;;;1999.90;999.90;;;12.10;99.90;;;;;;4955799;29;20086;-75
2022/05/11 03:37:15;;;;;;;1999.90;999.90;;;12.10;99.90;;;;;;4954644;29;20023;-75
2022/05/11 03:39:41;;;;;;;1999.90;999.90;;;12.10;99.90;;;;;;4948773;29;20058;-75
2022/05/11 03:42:11;;;;;;;1999.90;999.90;;;12.10;99.90;;;;;;4955518;28;20439;-74
2022/05/11 03:44:37;;;;;;;1999.90;999.90;;;12.10;99.90;;;;;;4951069;29;20406;-75
2022/05/11 03:47:03;;;;;;;1999.90;999.90;;;12.10;99.90;;;;;;4954855;28;20500;-75
2022/05/11 03:49:29;;;;;;;1999.90;999.90;;;12.10;99.90;;;;;;4955559;28;20050;-75
2022/05/11 03:51:55;;;;;;;1999.90;999.90;;;12.10;99.90;;;;;;4955450;29;20023;-74
2022/05/11 03:54:21;;;;;;;1999.90;999.90;;;12.00;99.90;;;;;;4954587;28;20132;-74
2022/05/11 03:56:47;;;;;;;1999.90;999.90;;;12.00;99.90;;;;;;4955132;29;20019;-75
2022/05/11 03:59:12;;;;;;;1999.90;999.90;;;12.00;99.90;;;;;;4952643;28;20475;-74
2022/05/11 04:01:39;;;;;;;1999.90;999.90;;;12.00;99.90;;;;;;4955121;29;20041;-74
2022/05/11 04:04:05;;;;;;;1999.90;999.90;;;12.00;99.90;;;;;;4957190;28;20383;-75
2022/05/11 04:06:31;;;;;;;1999.90;999.90;;;12.00;99.90;;;;;;4958549;28;20118;-75
2022/05/11 04:08:58;;;;;;;1999.90;999.90;;;12.00;99.90;;;;;;4955230;28;20031;-75
2022/05/11 04:11:25;;;;;;;1999.90;999.90;;;11.90;99.90;;;;;;4952479;29;20058;-75
2022/05/11 04:13:53;;;;;;;1999.90;999.90;;;11.90;99.90;;;;;;4953804;28;20020;-75
2022/05/11 04:16:20;;;;;;;1999.90;999.90;;;11.90;99.90;;;;;;4955222;29;20114;-75
2022/05/11 04:18:46;;;;;;;1999.90;999.90;;;11.90;99.90;;;;;;4955021;29;20031;-75
2022/05/11 04:21:13;;;;;;;1999.90;999.90;;;11.90;99.90;;;;;;4954882;29;20406;-75
2022/05/11 04:23:42;;;;;;;1999.90;999.90;;;11.90;99.90;;;;;;4953949;29;20113;-75
2022/05/11 04:26:08;;;;;;;1999.90;999.90;;;11.80;99.90;;;;;;4951634;29;20031;-75
2022/05/11 04:28:34;;;;;;;1999.90;999.90;;;11.70;99.90;;;;;;4943568;28;20032;-75
2022/05/11 04:31:05;;;;;;;1999.90;999.90;;;11.70;99.90;;;;;;4953423;28;20027;-75
2022/05/11 04:33:31;;;;;;;1999.90;999.90;;;11.60;99.90;;;;;;4951862;28;20074;-75
2022/05/11 04:35:57;;;;;;;1999.90;999.90;;;11.60;99.90;;;;;;4954783;29;20105;-75
2022/05/11 04:38:23;;;;;;;1999.90;999.90;;;11.60;99.90;;;;;;4958790;28;20147;-75
2022/05/11 04:40:49;;;;;;;1999.90;999.90;;;11.60;99.90;;;;;;4955118;29;20054;-75
2022/05/11 04:43:15;;;;;;;1999.90;999.90;;;11.70;99.90;;;;;;4953275;29;20035;-74
2022/05/11 04:45:42;;;;;;;1999.90;999.90;;;11.80;99.90;;;;;;4954706;29;20042;-75
2022/05/11 04:48:09;;;;;;;1999.90;999.90;;;11.80;99.90;;;;;;4951741;28;20062;-75
2022/05/11 04:50:38;;;;;;;1999.90;999.90;;;11.80;99.90;;;;;;4953014;28;20031;-77
2022/05/11 04:53:04;;;;;;;1999.90;999.90;;;11.80;99.90;;;;;;4954927;28;20091;-77
2022/05/11 04:55:30;;;;;;;1999.90;999.90;;;11.80;99.90;;;;;;4954433;29;20078;-77
2022/05/11 04:57:55;;;;;;;1999.90;999.90;;;11.90;99.90;;;;;;4951410;28;20031;-75
2022/05/11 05:00:21;;;;;;;1999.90;999.90;;;11.90;99.90;;;;;;4957426;28;20031;-75
2022/05/11 05:02:47;;;;;;;1999.90;999.90;;;11.90;99.90;;;;;;4957946;28;20038;-75
2022/05/11 05:05:13;;;;;;;1999.90;999.90;;;11.90;99.90;;;;;;4957762;28;20023;-75
2022/05/11 05:07:40;;;;;;;1999.90;999.90;;;12.00;99.90;;;;;;4958750;29;20090;-75
2022/05/11 05:10:08;;;;;;;1999.90;999.90;;;12.00;99.90;;;;;;4958182;28;20027;-75
2022/05/11 05:12:34;;;;;;;1999.90;999.90;;;12.10;99.90;;;;;;4954228;28;20035;-75
2022/05/11 05:15:00;;;;;;;1999.90;999.90;;;12.00;99.90;;;;;;4956515;28;20397;-75
2022/05/11 05:17:26;;;;;;;1999.90;999.90;;;12.00;99.90;;;;;;4958222;28;20035;-76
2022/05/11 05:19:52;;;;;;;1999.90;999.90;;;12.00;99.90;;;;;;4958783;29;20027;-75
2022/05/11 05:22:18;;;;;;;1999.90;999.90;;;12.00;99.90;;;;;;4961998;28;20467;-75
2022/05/11 05:24:44;;;;;;;1999.90;999.90;;;12.10;99.90;;;;;;4958211;28;20086;-75
2022/05/11 05:27:14;;;;;;;1999.90;999.90;;;12.10;99.90;;;;;;4961039;28;20039;-75
2022/05/11 05:32:24;;;;;;;1999.90;999.90;;;12.30;99.90;;;;;;4957957;28;20569;-75
2022/05/11 05:34:50;;;;;;;1999.90;999.90;;;12.40;99.90;;;;;;4957408;28;20034;-75
2022/05/11 05:37:17;;;;;;;1999.90;999.90;;;12.50;99.90;;;;;;4957518;28;20023;-75
2022/05/11 05:39:44;;;;;;;1999.90;999.90;;;12.60;99.90;;;;;;4941905;29;20055;-76
2022/05/11 05:42:17;;;;;;;1999.90;999.90;;;12.70;99.90;;;;;;4956742;29;20035;-75
2022/05/11 05:44:43;;;;;;;1999.90;999.90;;;12.80;99.90;;;;;;4949307;28;20464;-75
2022/05/11 05:47:11;;;;;;;1999.90;999.90;;;12.80;99.90;;;;;;4955556;29;20082;-74
2022/05/11 05:49:40;;;;;;;1999.90;999.90;;;12.90;99.90;;;;;;4956722;28;20046;-75
2022/05/11 05:52:07;;;;;;;1999.90;999.90;;;13.00;99.90;;;;;;4956935;29;20035;-75
2022/05/11 05:54:35;;;;;;;1999.90;999.90;;;13.00;99.90;;;;;;4956801;28;20038;-75
2022/05/11 05:57:00;;;;;;;1999.90;999.90;;;13.20;99.90;;;;;;4955295;29;20098;-74
2022/05/11 05:59:26;;;;;;;1999.90;999.90;;;13.20;99.90;;;;;;4957699;28;20019;-74
2022/05/11 06:01:52;;;;;;;1999.90;999.90;;;13.30;99.90;;;;;;4949984;28;20105;-75
2022/05/11 06:04:18;;;;;;;1999.90;999.90;;;13.40;99.90;;;;;;4961843;28;20073;-75
2022/05/11 06:06:43;;;;;;;1999.90;999.90;;;13.50;99.90;;;;;;4955625;28;20035;-75
2022/05/11 06:09:09;;;;;;;1999.90;999.90;;;13.60;99.90;;;;;;4955535;28;20031;-73
2022/05/11 06:11:38;;;;;;;1999.90;999.90;;;13.70;99.90;;;;;;4955687;28;20032;-75
2022/05/11 06:14:04;;;;;;;1999.90;999.90;;;13.80;99.90;;;;;;4954910;28;20019;-75
2022/05/11 06:16:31;;;;;;;1999.90;999.90;;;13.80;99.90;;;;;;4956550;28;20435;-75
2022/05/11 06:18:57;;;;;;;1999.90;999.90;;;14.00;99.90;;;;;;4955385;28;20479;-74
2022/05/11 06:21:24;;;;;;;1999.90;999.90;;;14.20;99.90;;;;;;4948757;28;20082;-76
2022/05/11 06:23:50;;;;;;;1999.90;999.90;;;14.30;99.90;;;;;;4955178;28;20031;-73
2022/05/11 06:26:16;;;;;;;1999.90;999.90;;;14.50;99.90;;;;;;4954336;28;20402;-77
2022/05/11 06:28:43;;;;;;;1999.90;999.90;;;14.60;99.90;;;;;;4955300;28;20019;-74
2022/05/11 06:31:10;;;;;;;1999.90;999.90;;;14.70;99.90;;;;;;4941392;28;20509;-74
2022/05/11 06:33:36;;;;;;;1999.90;999.90;;;14.90;99.90;;;;;;4955976;28;20131;-76
2022/05/11 06:36:04;;;;;;;1999.90;999.90;;;14.90;99.90;;;;;;4952568;29;20030;-74
2022/05/11 06:38:30;;;;;;;1999.90;999.90;;;15.10;99.90;;;;;;4954808;28;20034;-74
2022/05/11 06:40:55;;;;;;;1999.90;999.90;;;15.10;99.90;;;;;;4950060;29;20035;-76
2022/05/11 06:43:21;;;;;;;1999.90;999.90;;;15.30;99.90;;;;;;4954109;28;20031;-74
2022/05/11 06:45:47;;;;;;;1999.90;999.90;;;15.40;99.90;;;;;;4948436;28;20042;-74
2022/05/11 06:48:14;;;;;;;1999.90;999.90;;;15.50;99.90;;;;;;4953151;29;20080;-76
2022/05/11 06:50:41;;;;;;;1999.90;999.90;;;15.60;99.90;;;;;;4950348;28;20126;-76
2022/05/11 06:53:12;;;;;;;1999.90;999.90;;;15.70;99.90;;;;;;4952357;28;20043;-74
2022/05/11 07:01:15;;;;;;;1999.90;999.90;;;15.90;99.90;;;;;;4929301;29;20063;-74
2022/05/11 07:03:41;;;;;;;1999.90;999.90;;;16.00;99.90;;;;;;4945942;29;20103;-74
2022/05/11 07:06:07;;;;;;;1999.90;999.90;;;16.00;99.90;;;;;;4951258;28;20050;-74
2022/05/11 07:08:44;;;;;;;1999.90;999.90;;;16.10;99.90;;;;;;4951622;29;20027;-74
2022/05/11 07:13:55;;;;;;;1999.90;999.90;;;16.20;99.90;;;;;;4950207;28;20042;-76
2022/05/11 07:16:23;;;;;;;1999.90;999.90;;;16.40;99.90;;;;;;4951750;28;20065;-75
2022/05/11 07:18:49;;;;;;;1999.90;999.90;;;16.50;99.90;;;;;;4951974;28;20019;-76
2022/05/11 07:21:15;;;;;;;1999.90;999.90;;;16.70;99.90;;;;;;4950996;28;20419;-75
2022/05/11 07:23:40;;;;;;;1999.90;999.90;;;16.90;99.90;;;;;;4951642;28;20035;-74
2022/05/11 07:26:06;;;;;;;1999.90;999.90;;;17.10;99.90;;;;;;4950472;29;20566;-76
2022/05/11 07:28:32;;;;;;;1999.90;999.90;;;17.20;99.90;;;;;;4950856;28;20035;-74
2022/05/11 07:30:58;;;;;;;1999.90;999.90;;;17.30;99.90;;;;;;4950991;28;20039;-74
2022/05/11 07:33:24;;;;;;;1999.90;999.90;;;17.70;99.90;;;;;;4954726;28;20533;-75
2022/05/11 07:35:50;;;;;;;1999.90;999.90;;;18.10;99.90;;;;;;4949666;28;20070;-76
2022/05/11 07:38:18;;;;;;;1999.90;999.90;;;18.40;99.90;;;;;;4949830;28;20070;-76
2022/05/11 07:40:44;;;;;;;1999.90;999.90;;;18.80;99.90;;;;;;4942782;29;20533;-77
2022/05/11 07:43:11;;;;;;;1999.90;999.90;;;19.40;99.90;;;;;;4950573;29;20039;-75
2022/05/11 07:45:38;;;;;;;1999.90;999.90;;;19.70;99.90;;;;;;4949883;29;20039;-77
2022/05/11 07:48:05;;;;;;;1999.90;999.90;;;20.00;99.90;;;;;;4946754;28;20118;-76
2022/05/11 07:50:31;;;;;;;1999.90;999.90;;;20.70;99.90;;;;;;4947281;29;20494;-76
2022/05/11 07:52:57;;;;;;;1999.90;999.90;;;19.70;99.90;;;;;;4952133;28;20113;-77
2022/05/11 07:55:24;;;;;;;1999.90;999.90;;;19.80;99.90;;;;;;4950414;29;20458;-77
2022/05/11 08:00:35;;;;;;;1999.90;999.90;;;24.20;99.90;;;;;;4939425;29;20098;-77
2022/05/11 08:03:00;;;;;;;1999.90;999.90;;;26.00;97.60;;;;;;4951687;28;20087;-78
2022/05/11 08:05:26;;;;;;;1999.90;999.90;;;25.70;96.60;;;;;;4951708;28;20031;-77
2022/05/11 08:07:55;;;;;;;1999.90;999.90;;;24.90;97.20;;;;;;4950983;28;20510;-77
2022/05/11 08:10:33;;;;;;;1999.90;999.90;;;23.30;99.60;;;;;;4952228;28;20026;-78
2022/05/11 08:12:59;;;;;;;1999.90;999.90;;;22.10;99.90;;;;;;4947615;29;20111;-77
2022/05/11 08:15:31;;;;;;;1999.90;999.90;;;23.00;99.90;;;;;;4951669;28;20470;-76
2022/05/11 08:17:57;;;;;;;1999.90;999.90;;;24.00;99.70;;;;;;4950278;29;20239;-78
2022/05/11 08:20:29;;;;;;;1999.90;999.90;;;25.20;98.30;;;;;;4950572;29;20031;-78
2022/05/11 08:22:56;;;;;;;1999.90;999.90;;;26.00;96.80;;;;;;4951427;29;20035;-78
2022/05/11 08:25:25;;;;;;;1999.90;999.90;;;26.50;95.50;;;;;;4945536;29;20035;-76
2022/05/11 08:27:53;;;;;;;1999.90;999.90;;;25.00;96.80;;;;;;4948886;29;20119;-75
2022/05/11 08:33:19;;;;;;;1999.90;999.90;;;23.00;99.90;;;;;;4949363;28;20045;-77
2022/05/11 08:35:45;;;;;;;1999.90;999.90;;;25.00;98.50;;;;;;4949969;29;20495;-77
2022/05/11 08:38:11;;;;;;;1999.90;999.90;;;26.30;96.00;;;;;;4948900;28;20027;-76
2022/05/11 08:40:40;;;;;;;1999.90;999.90;;;26.50;95.30;;;;;;4950693;28;20397;-76
2022/05/11 08:43:12;;;;;;;1999.90;999.90;;;27.00;94.80;;;;;;4949354;28;20093;-77
2022/05/11 08:45:40;;;;;;;;;;;26.90;94.50;;;;;;4952229;28;20031;-77
2022/05/11 08:48:16;;;;;;;1999.90;999.90;;;27.10;94.70;;;;;;4949977;28;19946;-77
2022/05/11 08:50:43;;;;;;;1999.90;999.90;;;27.60;94.40;;;;;;4943144;29;20135;-76
2022/05/11 08:53:39;;;;;;;1999.90;999.90;;;27.30;94.10;;;;;;4948662;29;20113;-76
2022/05/11 08:56:17;;;;;;;1999.90;999.90;;;27.20;94.50;;;;;;4951691;28;20068;-76
2022/05/11 08:58:52;;;;;;;1999.90;999.90;;;25.30;95.30;;;;;;4950298;29;20022;-78
2022/05/11 09:01:34;;;;;;;1999.90;999.90;;;24.90;96.80;;;;;;4949265;28;20114;-77
2022/05/11 09:04:07;;;;;;;1999.90;999.90;;;25.40;95.40;;;;;;4954395;28;20027;-77
2022/05/11 09:06:33;;;;;;;1999.90;999.90;;;25.80;95.20;;;;;;4950783;28;20035;-75
2022/05/11 09:09:01;;;;;;;1999.90;999.90;;;25.90;95.50;;;;;;4948160;29;20039;-77
2022/05/11 09:11:34;;;;;;;1999.90;999.90;;;26.10;95.10;;;;;;4950792;29;20035;-77
2022/05/11 09:14:01;;;;;;;1999.90;999.90;;;25.80;95.70;;;;;;4944050;28;20059;-78
2022/05/11 09:16:37;;;;;;;1999.90;999.90;;;26.10;95.30;;;;;;4948828;29;20395;-76
2022/05/11 09:19:10;;;;;;;1999.90;999.90;;;26.80;95.10;;;;;;4950455;28;20573;-76
2022/05/11 09:21:52;;;;;;;1999.90;999.90;;;27.00;94.50;;;;;;4944874;28;20467;-77
2022/05/11 09:24:18;;;;;;;1999.90;999.90;;;26.40;95.20;;;;;;4953514;28;20026;-76
2022/05/11 09:26:46;;;;;;;1999.90;999.90;;;26.60;94.50;;;;;;4951439;28;20031;-77
2022/05/11 09:29:19;;;;;;;1999.90;999.90;;;27.00;94.10;;;;;;4950844;29;20035;-75
2022/05/11 09:31:46;;;;;;;1999.90;999.90;;;27.10;94.50;;;;;;4953493;28;20118;-76
2022/05/11 09:34:24;;;;;;;1999.90;999.90;;;27.70;94.00;;;;;;4954276;28;20166;-78
2022/05/11 09:37:28;;;;;;;1999.90;999.90;;;27.50;93.80;;;;;;4947623;28;20058;-78
2022/05/11 09:40:01;;;;;;;1999.90;999.90;;;27.10;94.40;;;;;;4942053;28;20051;-75
2022/05/11 09:42:32;;;;;;;1999.90;999.90;;;26.70;94.70;;;;;;4948430;29;20031;-76
2022/05/11 09:44:59;;;;;;;1999.90;999.90;;;25.40;95.50;;;;;;4951893;28;20054;-75
2022/05/11 09:47:29;;;;;;;1999.90;999.90;;;25.00;97.40;;;;;;4953299;29;20023;-78
2022/05/11 09:50:13;;;;;;;1999.90;999.90;;;26.10;96.20;;;;;;4953200;29;20035;-76
2022/05/11 09:52:40;;;;;;;1999.90;999.90;;;27.30;94.50;;;;;;4947628;29;20044;-76
2022/05/11 09:55:30;;;;;;;1999.90;999.90;;;27.90;93.90;;;;;;4952591;29;20038;-79
2022/05/11 09:58:03;;;;;;;1999.90;999.90;;;27.40;94.10;;;;;;4949991;29;20061;-76
2022/05/11 10:00:36;;;;;;;1999.90;999.90;;;27.30;94.60;;;;;;4951070;29;20035;-78
2022/05/11 10:03:06;;;;;;;;;;;27.80;93.60;;;;;;4954102;28;20554;-77
2022/05/11 10:05:46;;;;;;;1999.90;999.90;;;27.30;94.20;;;;;;4950299;28;19917;-79
2022/05/11 10:08:19;;;;;;;1999.90;999.90;;;27.70;93.90;;;;;;4949596;28;20027;-76
2022/05/11 10:10:51;;;;;;;1999.90;999.90;;;27.30;93.90;;;;;;4952591;28;20102;-77
2022/05/11 10:13:21;;;;;;;1999.90;999.90;;;27.40;93.70;;;;;;4949896;29;20057;-78
2022/05/11 10:21:53;;;;;;;1999.90;999.90;;;26.40;94.50;;;;;;4947805;28;20042;-78
2022/05/11 10:24:56;;;;;;;1999.90;999.90;;;26.40;94.70;;;;;;4950765;28;20082;-75
2022/05/11 10:27:43;;;;;;;1999.90;999.90;;;26.20;95.20;;;;;;4935718;28;20122;-79
2022/05/11 10:30:30;;;;;;;1999.90;999.90;;;25.80;95.70;;;;;;4945367;28;20740;-78
2022/05/11 10:33:10;;;;;;;1999.90;999.90;;;25.80;95.40;;;;;;4954133;28;20093;-75
2022/05/11 10:35:47;;;;;;;1999.90;999.90;;;25.70;95.60;;;;;;4950919;28;20027;-75
2022/05/11 10:38:21;;;;;;;1999.90;999.90;;;26.20;95.20;;;;;;4951890;28;20023;-75
2022/05/11 10:41:12;;;;;;;1999.90;999.90;;;26.80;94.00;;;;;;4940665;29;20039;-77
2022/05/11 10:44:21;;;;;;;1999.90;999.90;;;25.40;96.50;;;;;;4941359;28;20039;-78
2022/05/11 10:46:58;;;;;;;1999.90;999.90;;;26.70;95.60;;;;;;4924036;28;20187;-78
2022/05/11 10:49:46;;;;;;;1999.90;999.90;;;27.10;94.80;;;;;;4945061;29;20031;-76
2022/05/11 10:52:19;;;;;;;1999.90;999.90;;;27.40;94.30;;;;;;4948757;29;20407;-75
2022/05/11 10:55:25;;;;;;;1999.90;999.90;;;26.70;94.70;;;;;;4946349;28;20035;-73
2022/05/11 10:57:56;;;;;;;1999.90;999.90;;;26.30;94.90;;;;;;4949311;29;20050;-78
2022/05/11 11:00:24;;;;;;;1999.90;999.90;;;26.40;95.20;;;;;;4932338;28;20039;-75
2022/05/11 11:03:01;;;;;;;1999.90;999.90;;;26.50;95.10;;;;;;4942597;28;20050;-75
2022/05/11 11:07:11;;;;;;;1999.90;999.90;;;26.30;95.50;;;;;;4937137;28;20399;-75
2022/05/11 11:08:53;;;;;;;1999.90;999.90;;;26.00;95.90;;;;;;4940675;28;20042;-78
2022/05/11 11:11:43;;;;;;;1999.90;999.90;;;26.70;95.90;;;;;;4940542;29;20118;-78
2022/05/11 11:14:11;;;;;;;1999.90;999.90;;;26.50;95.40;;;;;;4942551;28;20082;-75
2022/05/11 11:16:39;;;;;;;1999.90;999.90;;;26.10;95.20;;;;;;4928380;29;20035;-74
2022/05/11 11:19:08;;;;;;;1999.90;999.90;;;25.50;95.90;;;;;;4939927;28;20032;-77
2022/05/11 11:21:39;;;;;;;1999.90;999.90;;;25.10;96.20;;;;;;4939243;28;20494;-77
2022/05/11 11:24:23;;;;;;;1999.90;999.90;;;25.10;96.20;;;;;;4929202;28;20101;-75
2022/05/11 11:27:04;;;;;;;1999.90;999.90;;;25.50;95.80;;;;;;4937513;28;20094;-77
2022/05/11 11:29:58;;;;;;;1999.90;999.90;;;25.50;95.70;;;;;;4945108;28;20027;-75
2022/05/11 11:32:24;;;;;;;1999.90;999.90;;;24.70;96.30;;;;;;4939269;29;20051;-78
2022/05/11 11:35:23;;;;;;;1999.90;999.90;;;24.60;96.90;;;;;;4945863;28;20057;-74
2022/05/11 11:51:03;;;;;;;1999.90;999.90;;;22.80;99.10;;;;;;5933317;23;20057;-78
2022/05/11 11:53:51;;;;;;;1999.90;999.90;;;22.60;99.50;;;;;;4934968;29;20531;-84
2022/05/11 11:56:24;;;;;;;1999.90;999.90;;;23.50;98.40;;;;;;4933798;28;20371;-82
2022/05/11 11:59:10;;;;;;;1999.90;999.90;;;23.70;97.60;;;;;;4941754;29;20042;-79
2022/05/11 12:01:44;;;;;;;1999.90;999.90;;;24.20;97.50;;;;;;4933315;29;20221;-80
2022/05/11 12:04:41;;;;;;;1999.90;999.90;;;23.40;97.70;;;;;;4942693;29;20027;-87
2022/05/11 12:16:08;;;;;;;1999.90;999.90;;;23.40;98.10;;;;;;4933100;29;20091;-90
2022/05/11 12:18:37;;;;;;;1999.90;999.90;;;23.60;97.80;;;;;;4948243;29;20418;-76
2022/05/11 12:21:09;;;;;;;1999.90;999.90;;;23.40;97.90;;;;;;4933243;29;20050;-87
2022/05/11 12:23:38;;;;;;;1999.90;999.90;;;22.70;98.90;;;;;;4925569;29;20561;-82
2022/05/11 12:26:09;;;;;;;1999.90;999.90;;;22.60;99.00;;;;;;4939154;29;20514;-82
2022/05/11 12:28:45;;;;;;;1999.90;999.90;;;22.40;99.60;;;;;;4939011;29;20114;-84
2022/05/11 12:31:26;;;;;;;1999.90;999.90;;;22.70;99.70;;;;;;4934535;29;20028;-86
2022/05/11 12:33:55;;;;;;;1999.90;999.90;;;23.30;98.40;;;;;;4949914;29;20027;-80
2022/05/11 12:36:35;;;;;;;1999.90;999.90;;;22.40;99.60;;;;;;4947506;29;20067;-81
2022/05/11 12:39:01;;;;;;;1999.90;999.90;;;22.20;99.70;;;;;;4929633;29;20056;-80
2022/05/11 12:41:29;;;;;;;1999.90;999.90;;;21.90;99.90;;;;;;4934001;29;20038;-81
2022/05/11 12:44:01;;;;;;;1999.90;999.90;;;22.20;99.90;;;;;;4932114;29;20178;-84
2022/05/11 12:46:28;;;;;;;;;;;22.20;99.90;;;;;;4935154;29;20040;-78
2022/05/11 12:48:55;;;;;;;1999.90;999.90;;;22.40;99.90;;;;;;4931864;29;20101;-82
2022/05/11 12:51:42;;;;;;;1999.90;999.90;;;22.40;99.90;;;;;;4933043;29;20056;-79
2022/05/11 12:54:19;;;;;;;1999.90;999.90;;;22.20;99.70;;;;;;4933357;29;20035;-82
2022/05/11 12:57:15;;;;;;;1999.90;999.90;;;22.10;99.90;;;;;;4934965;29;20520;-85
2022/05/11 12:59:51;;;;;;;1999.90;999.90;;;21.90;99.90;;;;;;4930294;29;20514;-83
2022/05/11 13:02:26;;;;;;;1999.90;999.90;;;21.70;99.90;;;;;;4933907;29;20711;-86
2022/05/11 13:05:00;;;;;;;1999.90;999.90;;;21.50;99.90;;;;;;4931975;29;20518;-85
2022/05/11 13:07:44;;;;;;;1999.90;999.90;;;21.70;99.90;;;;;;4938513;29;20031;-85
2022/05/11 13:10:19;;;;;;;1999.90;999.90;;;21.90;99.90;;;;;;4932108;29;20047;-84